sensor_id;sensor_type;location;lat;lon;timestamp;P1;durP1;ratioP1;P2;durP2;ratioP2
1122;SDS011;548;48.778;9.252;2023-03-21T10:11:13;13.20;;;12.50;;
1122;SDS011;548;48.778;9.252;2023-03-21T10:13:45;13.23;;;12.60;;
1122;SDS011;548;48.778;9.252;2023-03-21T10:16:19;14.23;;;13.30;;
1122;SDS011;548;48.778;9.252;2023-03-21T10:18:49;12.87;;;12.30;;
1122;SDS011;548;48.778;9.252;2023-03-21T10:21:18;12.93;;;12.37;;
1122;SDS011;548;48.778;9.252;2023-03-21T10:23:47;13.23;;;12.63;;
1122;SDS011;548;48.778;9.252;2023-03-21T10:26:17;13.27;;;12.77;;
1122;SDS011;548;48.778;9.252;2023-03-21T10:28:46;13.53;;;12.93;;
1122;SDS011;548;48.778;9.252;2023-03-21T10:31:14;13.70;;;13.10;;
1122;SDS011;548;48.778;9.252;2023-03-21T10:33:44;13.40;;;12.80;;
1122;SDS011;548;48.778;9.252;2023-03-21T10:36:14;13.20;;;12.40;;
1122;SDS011;548;48.778;9.252;2023-03-21T10:38:43;12.70;;;12.10;;
1122;SDS011;548;48.778;9.252;2023-03-21T10:41:11;13.43;;;12.83;;
1122;SDS011;548;48.778;9.252;2023-03-21T10:43:39;13.67;;;12.97;;
1122;SDS011;548;48.778;9.252;2023-03-21T10:46:08;13.67;;;13.00;;
1122;SDS011;548;48.778;9.252;2023-03-21T10:48:38;13.90;;;13.40;;
1122;SDS011;548;48.778;9.252;2023-03-21T10:51:11;12.90;;;12.40;;
1122;SDS011;548;48.778;9.252;2023-03-21T10:53:44;12.97;;;12.37;;
1122;SDS011;548;48.778;9.252;2023-03-21T10:56:15;14.10;;;13.40;;
1122;SDS011;548;48.778;9.252;2023-03-21T10:58:45;12.70;;;12.00;;
1122;SDS011;548;48.778;9.252;2023-03-21T11:01:22;12.80;;;12.30;;
1122;SDS011;548;48.778;9.252;2023-03-21T11:03:55;12.50;;;12.10;;
1122;SDS011;548;48.778;9.252;2023-03-21T11:06:26;13.77;;;13.10;;
1122;SDS011;548;48.778;9.252;2023-03-21T11:08:57;13.47;;;12.73;;
1122;SDS011;548;48.778;9.252;2023-03-21T11:11:32;13.03;;;12.50;;
1122;SDS011;548;48.778;9.252;2023-03-21T11:14:02;13.43;;;12.83;;
1122;SDS011;548;48.778;9.252;2023-03-21T11:16:34;14.07;;;13.27;;
1122;SDS011;548;48.778;9.252;2023-03-21T11:19:11;13.70;;;12.97;;
1122;SDS011;548;48.778;9.252;2023-03-21T11:21:40;12.60;;;12.10;;
1122;SDS011;548;48.778;9.252;2023-03-21T11:24:09;12.40;;;11.97;;
1122;SDS011;548;48.778;9.252;2023-03-21T11:26:38;12.50;;;12.10;;
1122;SDS011;548;48.778;9.252;2023-03-21T11:29:12;12.17;;;11.67;;
1122;SDS011;548;48.778;9.252;2023-03-21T11:31:47;12.30;;;11.80;;
1122;SDS011;548;48.778;9.252;2023-03-21T11:34:22;28.47;;;11.83;;
1122;SDS011;548;48.778;9.252;2023-03-21T11:36:52;11.23;;;10.83;;
1122;SDS011;548;48.778;9.252;2023-03-21T11:39:27;11.33;;;10.93;;
1122;SDS011;548;48.778;9.252;2023-03-21T11:41:57;12.17;;;11.67;;
1122;SDS011;548;48.778;9.252;2023-03-21T11:44:27;11.60;;;11.10;;
1122;SDS011;548;48.778;9.252;2023-03-21T11:46:55;11.37;;;10.97;;
1122;SDS011;548;48.778;9.252;2023-03-21T11:49:22;12.57;;;12.07;;
1122;SDS011;548;48.778;9.252;2023-03-21T11:51:52;11.93;;;11.53;;
1122;SDS011;548;48.778;9.252;2023-03-21T11:54:39;11.50;;;10.97;;
1122;SDS011;548;48.778;9.252;2023-03-21T11:57:22;11.53;;;11.13;;
1122;SDS011;548;48.778;9.252;2023-03-21T12:00:00;11.20;;;10.80;;
1122;SDS011;548;48.778;9.252;2023-03-21T12:02:46;11.17;;;10.77;;
1122;SDS011;548;48.778;9.252;2023-03-21T12:05:30;12.27;;;11.67;;
1122;SDS011;548;48.778;9.252;2023-03-21T12:08:01;11.00;;;10.60;;
1122;SDS011;548;48.778;9.252;2023-03-21T12:10:35;11.70;;;11.20;;
1122;SDS011;548;48.778;9.252;2023-03-21T12:13:11;10.03;;;9.63;;
1122;SDS011;548;48.778;9.252;2023-03-21T12:16:07;10.60;;;10.20;;
1122;SDS011;548;48.778;9.252;2023-03-21T12:18:44;10.10;;;9.80;;
1122;SDS011;548;48.778;9.252;2023-03-21T12:21:22;10.70;;;10.23;;
1122;SDS011;548;48.778;9.252;2023-03-21T12:23:57;11.20;;;10.60;;
1122;SDS011;548;48.778;9.252;2023-03-21T12:26:31;11.93;;;11.33;;
1122;SDS011;548;48.778;9.252;2023-03-21T12:29:10;12.40;;;11.70;;
1122;SDS011;548;48.778;9.252;2023-03-21T12:31:59;12.20;;;11.60;;
1122;SDS011;548;48.778;9.252;2023-03-21T12:34:41;12.00;;;11.40;;
1122;SDS011;548;48.778;9.252;2023-03-21T12:37:21;12.70;;;12.10;;
1122;SDS011;548;48.778;9.252;2023-03-21T12:39:59;13.20;;;12.37;;
1122;SDS011;548;48.778;9.252;2023-03-21T12:42:50;12.20;;;11.43;;
1122;SDS011;548;48.778;9.252;2023-03-21T12:45:28;14.03;;;12.63;;
1122;SDS011;548;48.778;9.252;2023-03-21T12:48:10;13.03;;;12.13;;
1122;SDS011;548;48.778;9.252;2023-03-21T12:50:42;13.37;;;12.57;;
1122;SDS011;548;48.778;9.252;2023-03-21T12:53:16;12.47;;;11.47;;
1122;SDS011;548;48.778;9.252;2023-03-21T12:56:06;12.30;;;11.80;;
1122;SDS011;548;48.778;9.252;2023-03-21T12:58:40;12.90;;;12.20;;
1122;SDS011;548;48.778;9.252;2023-03-21T13:01:14;12.30;;;11.80;;
1122;SDS011;548;48.778;9.252;2023-03-21T13:03:47;12.63;;;11.70;;
1122;SDS011;548;48.778;9.252;2023-03-21T13:06:19;12.40;;;11.90;;
1122;SDS011;548;48.778;9.252;2023-03-21T13:08:53;12.47;;;11.73;;
1122;SDS011;548;48.778;9.252;2023-03-21T13:11:26;12.90;;;12.10;;
1122;SDS011;548;48.778;9.252;2023-03-21T13:13:55;12.57;;;11.73;;
1122;SDS011;548;48.778;9.252;2023-03-21T13:16:28;12.10;;;11.60;;
1122;SDS011;548;48.778;9.252;2023-03-21T13:19:04;12.20;;;11.40;;
1122;SDS011;548;48.778;9.252;2023-03-21T13:21:43;12.93;;;12.07;;
1122;SDS011;548;48.778;9.252;2023-03-21T13:24:17;12.80;;;12.10;;
1122;SDS011;548;48.778;9.252;2023-03-21T13:26:51;13.57;;;12.90;;
1122;SDS011;548;48.778;9.252;2023-03-21T13:29:26;12.40;;;11.80;;
1122;SDS011;548;48.778;9.252;2023-03-21T13:31:55;12.27;;;11.57;;
1122;SDS011;548;48.778;9.252;2023-03-21T13:34:37;12.27;;;11.77;;
1122;SDS011;548;48.778;9.252;2023-03-21T13:37:05;12.83;;;11.73;;
1122;SDS011;548;48.778;9.252;2023-03-21T13:39:44;12.63;;;11.83;;
1122;SDS011;548;48.778;9.252;2023-03-21T13:45:21;12.27;;;11.77;;
1122;SDS011;548;48.778;9.252;2023-03-21T13:47:53;13.43;;;12.50;;
1122;SDS011;548;48.778;9.252;2023-03-21T13:50:26;12.70;;;12.00;;
1122;SDS011;548;48.778;9.252;2023-03-21T13:53:20;12.90;;;12.10;;
1122;SDS011;548;48.778;9.252;2023-03-21T13:55:59;12.43;;;11.80;;
1122;SDS011;548;48.778;9.252;2023-03-21T13:58:38;12.90;;;12.20;;
1122;SDS011;548;48.778;9.252;2023-03-21T14:01:20;11.43;;;10.93;;
1122;SDS011;548;48.778;9.252;2023-03-21T14:03:55;11.90;;;11.33;;
1122;SDS011;548;48.778;9.252;2023-03-21T14:06:36;12.20;;;11.60;;
1122;SDS011;548;48.778;9.252;2023-03-21T14:09:07;11.63;;;11.13;;
1122;SDS011;548;48.778;9.252;2023-03-21T14:11:49;11.97;;;11.37;;
1122;SDS011;548;48.778;9.252;2023-03-21T14:14:18;11.63;;;11.13;;
1122;SDS011;548;48.778;9.252;2023-03-21T14:16:46;11.67;;;11.07;;
1122;SDS011;548;48.778;9.252;2023-03-21T14:19:13;11.83;;;11.23;;
1122;SDS011;548;48.778;9.252;2023-03-21T14:21:47;12.53;;;11.93;;
1122;SDS011;548;48.778;9.252;2023-03-21T14:24:15;12.67;;;12.00;;
1122;SDS011;548;48.778;9.252;2023-03-21T14:26:44;12.33;;;11.73;;
1122;SDS011;548;48.778;9.252;2023-03-21T14:29:14;13.20;;;12.10;;
1122;SDS011;548;48.778;9.252;2023-03-21T14:31:45;12.13;;;11.33;;
1122;SDS011;548;48.778;9.252;2023-03-21T14:34:13;13.70;;;12.70;;
1122;SDS011;548;48.778;9.252;2023-03-21T14:36:41;12.20;;;11.60;;
1122;SDS011;548;48.778;9.252;2023-03-21T14:39:13;12.07;;;11.37;;
1122;SDS011;548;48.778;9.252;2023-03-21T14:41:43;12.10;;;11.50;;
1122;SDS011;548;48.778;9.252;2023-03-21T14:44:19;11.97;;;11.40;;
1122;SDS011;548;48.778;9.252;2023-03-21T14:46:52;13.07;;;12.47;;
1122;SDS011;548;48.778;9.252;2023-03-21T14:49:25;12.30;;;11.60;;
1122;SDS011;548;48.778;9.252;2023-03-21T14:51:54;12.30;;;11.70;;
1122;SDS011;548;48.778;9.252;2023-03-21T14:54:23;11.80;;;11.20;;
1122;SDS011;548;48.778;9.252;2023-03-21T14:56:52;12.57;;;11.90;;
1122;SDS011;548;48.778;9.252;2023-03-21T14:59:26;13.57;;;12.87;;
1122;SDS011;548;48.778;9.252;2023-03-21T15:02:00;12.90;;;12.20;;
1122;SDS011;548;48.778;9.252;2023-03-21T15:04:29;13.30;;;12.60;;
1122;SDS011;548;48.778;9.252;2023-03-21T15:06:57;13.03;;;12.33;;
1122;SDS011;548;48.778;9.252;2023-03-21T15:09:31;11.87;;;11.27;;
1122;SDS011;548;48.778;9.252;2023-03-21T15:11:59;11.83;;;11.27;;
1122;SDS011;548;48.778;9.252;2023-03-21T15:14:27;12.47;;;11.67;;
1122;SDS011;548;48.778;9.252;2023-03-21T15:17:00;12.53;;;11.77;;
1122;SDS011;548;48.778;9.252;2023-03-21T15:19:40;11.30;;;10.80;;
1122;SDS011;548;48.778;9.252;2023-03-21T15:22:09;12.87;;;12.07;;
1122;SDS011;548;48.778;9.252;2023-03-21T15:24:43;12.27;;;11.40;;
1122;SDS011;548;48.778;9.252;2023-03-21T15:27:14;11.73;;;11.20;;
1122;SDS011;548;48.778;9.252;2023-03-21T15:29:43;12.10;;;11.47;;
1122;SDS011;548;48.778;9.252;2023-03-21T15:32:15;11.80;;;11.17;;
1122;SDS011;548;48.778;9.252;2023-03-21T15:34:44;11.80;;;11.10;;
1122;SDS011;548;48.778;9.252;2023-03-21T15:37:16;11.60;;;11.10;;
1122;SDS011;548;48.778;9.252;2023-03-21T15:39:47;11.87;;;11.10;;
1122;SDS011;548;48.778;9.252;2023-03-21T15:42:23;12.83;;;11.70;;
1122;SDS011;548;48.778;9.252;2023-03-21T15:44:54;12.03;;;11.13;;
1122;SDS011;548;48.778;9.252;2023-03-21T15:47:34;12.40;;;11.60;;
1122;SDS011;548;48.778;9.252;2023-03-21T15:50:06;11.77;;;11.03;;
1122;SDS011;548;48.778;9.252;2023-03-21T15:52:35;12.33;;;11.60;;
1122;SDS011;548;48.778;9.252;2023-03-21T15:55:09;11.07;;;10.33;;
1122;SDS011;548;48.778;9.252;2023-03-21T15:57:45;12.57;;;11.70;;
1122;SDS011;548;48.778;9.252;2023-03-21T16:00:17;11.30;;;10.43;;
1122;SDS011;548;48.778;9.252;2023-03-21T16:02:50;11.07;;;10.47;;
1122;SDS011;548;48.778;9.252;2023-03-21T16:05:23;11.80;;;11.20;;
1122;SDS011;548;48.778;9.252;2023-03-21T16:07:51;12.47;;;11.70;;
1122;SDS011;548;48.778;9.252;2023-03-21T16:10:25;11.90;;;11.30;;
1122;SDS011;548;48.778;9.252;2023-03-21T16:12:53;12.63;;;11.70;;
1122;SDS011;548;48.778;9.252;2023-03-21T16:15:20;11.50;;;10.90;;
1122;SDS011;548;48.778;9.252;2023-03-21T16:17:50;11.90;;;11.30;;
1122;SDS011;548;48.778;9.252;2023-03-21T16:20:19;11.83;;;11.27;;
1122;SDS011;548;48.778;9.252;2023-03-21T16:22:47;11.33;;;10.80;;
1122;SDS011;548;48.778;9.252;2023-03-21T16:25:15;11.70;;;11.00;;
1122;SDS011;548;48.778;9.252;2023-03-21T16:27:43;11.77;;;11.27;;
1122;SDS011;548;48.778;9.252;2023-03-21T16:30:10;12.37;;;11.57;;
1122;SDS011;548;48.778;9.252;2023-03-21T16:32:39;12.63;;;11.60;;
1122;SDS011;548;48.778;9.252;2023-03-21T16:35:06;11.43;;;10.77;;
1122;SDS011;548;48.778;9.252;2023-03-21T16:37:33;11.40;;;10.70;;
1122;SDS011;548;48.778;9.252;2023-03-21T16:40:00;12.37;;;11.50;;
1122;SDS011;548;48.778;9.252;2023-03-21T16:42:29;12.20;;;11.30;;
1122;SDS011;548;48.778;9.252;2023-03-21T16:44:57;11.97;;;11.13;;
1122;SDS011;548;48.778;9.252;2023-03-21T16:47:24;10.93;;;10.43;;
1122;SDS011;548;48.778;9.252;2023-03-21T16:49:51;10.90;;;10.30;;
1122;SDS011;548;48.778;9.252;2023-03-21T16:52:17;10.83;;;10.20;;
1122;SDS011;548;48.778;9.252;2023-03-21T16:54:44;11.10;;;10.60;;
1122;SDS011;548;48.778;9.252;2023-03-21T16:57:16;12.00;;;11.13;;
1122;SDS011;548;48.778;9.252;2023-03-21T16:59:47;11.73;;;10.93;;
1122;SDS011;548;48.778;9.252;2023-03-21T17:02:16;11.90;;;11.10;;
1122;SDS011;548;48.778;9.252;2023-03-21T17:04:42;11.43;;;10.83;;
1122;SDS011;548;48.778;9.252;2023-03-21T17:07:10;12.47;;;11.60;;
1122;SDS011;548;48.778;9.252;2023-03-21T17:09:39;13.30;;;12.50;;
1122;SDS011;548;48.778;9.252;2023-03-21T17:12:08;13.00;;;12.30;;
1122;SDS011;548;48.778;9.252;2023-03-21T17:14:37;11.70;;;11.10;;
1122;SDS011;548;48.778;9.252;2023-03-21T17:17:04;12.33;;;11.30;;
1122;SDS011;548;48.778;9.252;2023-03-21T17:19:32;11.87;;;11.00;;
1122;SDS011;548;48.778;9.252;2023-03-21T17:21:59;12.03;;;11.03;;
1122;SDS011;548;48.778;9.252;2023-03-21T17:24:26;11.33;;;10.63;;
1122;SDS011;548;48.778;9.252;2023-03-21T17:26:53;12.27;;;11.50;;
1122;SDS011;548;48.778;9.252;2023-03-21T17:29:19;11.37;;;10.60;;
1122;SDS011;548;48.778;9.252;2023-03-21T17:31:46;11.57;;;10.67;;
1122;SDS011;548;48.778;9.252;2023-03-21T17:34:15;11.23;;;10.37;;
1122;SDS011;548;48.778;9.252;2023-03-21T17:36:44;12.00;;;11.20;;
1122;SDS011;548;48.778;9.252;2023-03-21T17:39:13;10.47;;;9.77;;
1122;SDS011;548;48.778;9.252;2023-03-21T17:41:43;10.70;;;10.10;;
1122;SDS011;548;48.778;9.252;2023-03-21T17:44:10;12.03;;;11.23;;
1122;SDS011;548;48.778;9.252;2023-03-21T17:46:36;10.63;;;10.00;;
1122;SDS011;548;48.778;9.252;2023-03-21T17:49:04;11.07;;;10.20;;
1122;SDS011;548;48.778;9.252;2023-03-21T17:51:31;12.47;;;11.20;;
1122;SDS011;548;48.778;9.252;2023-03-21T17:53:59;12.00;;;11.40;;
1122;SDS011;548;48.778;9.252;2023-03-21T17:56:27;13.43;;;12.17;;
